Terminal Aerodrome Forecast
Issued by NWS

Home | Current Version | Previous Version | Graphics & Text | Print | Product List | Glossary On
Versions: 1 2 3 4 5 6 7 8 9 10 11 12 13 14 15 16 17 18 19 20 21 22 23 24 25
000
FTUS43 KBIS 240538 AAD
TAFJMS
TAF AMD
KJMS 240538Z 2406/2506 35010KT 6SM BR SCT015
      TEMPO 2408/2412 4SM BR BKN015
     FM241200 36011KT P6SM BKN020
     FM241600 01010KT P6SM BKN050
     FM250200 04007KT P6SM SCT100=

USA.gov is the U.S. government's official web portal to all federal, state and local government web resources and services.